NWWW METAR and TAF weather

Enter ICAO airport designator
Station Type Date Time Source
NWWW METAR 2020/01/22 18:00 UTC NOAA

NWWW 221800Z AUTO 04003KT CAVOK 21/18 Q1012 NOSIG


Station Type Date Time Source
NWWW Decoded METAR 2020/01/22 18:00 UTC NOAA

La Tontouta Nlle-Caledonie , New Caledonia (NWWW) 22-01S 166-13E 14M
Jan 22, 2020 - 01:00 PM EST / 2020.01.22 1800 UTC
Wind: from the NE (040 degrees) at 3 MPH (3 KT):0
Visibility: greater than 7 mile(s):0
Temperature: 69 F (21 C)
Dew Point: 64 F (18 C)
Relative Humidity: 82%
Pressure (altimeter): 29.88 in. Hg (1012 hPa)
ob: NWWW 221800Z AUTO 04003KT CAVOK 21/18 Q1012 NOSIG
cycle: 18

Station Type Date Time Source
NWWW TAF 2020/01/22 18:27 UTC NOAA

TAF NWWW 221700Z 2218/2318 14005KT 9999 FEW045 SCT055
BECMG 2222/2224 16018KT PROB40
TEMPO 2300/2309 4000 SHRA BKN012 SCT020TCU
BECMG 2310/2312 08005KT

Example: see airport list